Norman Y. Mineta San Jose International Airport
KSJC : rendu visible

Aérodrome :











RETROUVEZ-NOUS SUR...

 
LOGIN :

S'inscrire | Disclaimer

   EN    FR    IT 

 









Légende :    VFR   VFR Marginal   IFR   IFR Intensif   IFR Très Intensif
Visi : 
Plafond : 
>= 8 km
>= 3000ft
5 à 8 km
1000 à 3000 ft
1500m à 5 km
500 à 1000 ft
800 à 1500m
200 à 500 ft
< 800m
< 200 ft
Symboles :   Orages  Brouillard  Fortes neiges  Fortes précipitations  Vent > 20 kt






- Altitude de l'aérodrome : 62 ft
- Code IATA : SJC


KSJC - Norman Y. Mineta San Jose International

DERNIER METAR :
  • 242153Z 31009KT 10SM FEW023 BKN100 BKN160 18/11 A3013 RMK AO2 SLP202 T01830111

METARs EXPIRÉS :
  • 242053Z VRB04KT 10SM FEW020 BKN100 BKN160 17/11 A3015 RMK AO2 SLP208 T01720106 58019
  • 241953Z 33004KT 10SM FEW017 BKN100 BKN160 17/10 A3018 RMK AO2 SLP219 T01670100

TAF KSJC
Valide du 24 à 18h jusqu'au 25 à 18h UTC


241737Z 2418/2518 VRB04KT 4SM BR FEW004 BKN025 BKN050
FM241900 31006KT P6SM FEW015 SCT040 SCT150
FM250300 VRB04KT P6SM VCSH FEW010 SCT035 BKN100
FM250600 VRB03KT 6SM BR FEW008 BKN035 OVC050
FM251100 15004KT 4SM BR SCT015 BKN025 OVC040
FM251500 VRB04KT 3SM BR BKN015 OVC025



MET'MAP, la Météo Aéronautique d'un coup d'oeil ! - Copyright ORBIFLY Décembre 2007 - Disclaimer

ORBIFLY MET'MAP TEAM :

Programmation & Développement : Alexandra Zaïnal
Sur une idée originale de : Baudouin d'Aumeries
Assistance à la programmation : Marc-Olivier Méhu
Soutien technique & logistique : Manuel Goepfert

Contact : metmap@orbifly.com




SOURCES & CREDITS :

   NOAA       Earth
Advisory